Time;durP1;ratioP1;P1;durP2;ratioP2;P2;SDS_P1;SDS_P2;PMS_P1;PMS_P2;Temp;Humidity;BMP_temperature;BMP_pressure;BME280_temperature;BME280_humidity;BME280_pressure;Samples;Min_cycle;Max_cycle;Signal;HPM_P1;HPM_P2
2023/11/06 00:00:11;;;;;;;19.80;11.80;;;;;;;21.20;52.68;97975.52;108267;1256;72749;-67
2023/11/06 00:02:39;;;;;;;20.10;11.60;;;;;;;21.19;52.81;97975.16;108168;1257;70075;-66
2023/11/06 00:05:08;;;;;;;17.70;11.40;;;;;;;21.43;52.16;97978.14;108182;1251;72803;-67
2023/11/06 00:07:37;;;;;;;17.10;10.40;;;;;;;21.67;51.71;97978.27;108182;1251;61634;-68
2023/11/06 00:10:05;;;;;;;22.10;11.90;;;;;;;21.59;51.88;97974.84;108192;1251;60352;-66
2023/11/06 00:12:32;;;;;;;18.50;10.60;;;;;;;21.42;52.15;97971.30;108167;1256;73878;-66
2023/11/06 00:14:59;;;;;;;28.60;12.60;;;;;;;21.46;52.09;97969.90;108268;1251;68374;-67
2023/11/06 00:17:27;;;;;;;34.90;15.10;;;;;;;21.43;52.24;97969.70;108181;1253;71441;-65
2023/11/06 00:19:54;;;;;;;27.00;14.10;;;;;;;21.59;51.67;97974.06;108169;1251;60833;-69
2023/11/06 00:22:22;;;;;;;20.20;11.10;;;;;;;21.49;51.95;97973.27;108244;1251;60286;-67
2023/11/06 00:24:50;;;;;;;22.90;13.20;;;;;;;21.35;52.45;97971.21;108242;1251;72561;-66
2023/11/06 00:27:17;;;;;;;22.60;11.70;;;;;;;21.49;52.06;97970.45;108214;1251;70351;-67
2023/11/06 00:29:45;;;;;;;22.50;11.20;;;;;;;21.55;51.87;97967.84;108224;1251;72608;-67
2023/11/06 00:32:12;;;;;;;30.70;13.60;;;;;;;21.63;51.68;97967.04;108249;1254;60585;-67
2023/11/06 00:34:40;;;;;;;26.60;10.60;;;;;;;21.67;51.58;97966.77;108171;1256;59986;-66
2023/11/06 00:37:07;;;;;;;18.20;10.00;;;;;;;21.57;51.79;97961.86;108273;1251;73805;-66
2023/11/06 00:39:35;;;;;;;17.10;9.30;;;;;;;21.68;51.42;97961.48;108320;1251;70140;-67
2023/11/06 00:42:04;;;;;;;15.70;8.60;;;;;;;21.64;51.70;97968.20;108279;1253;71185;-68
2023/11/06 00:44:31;;;;;;;20.10;10.10;;;;;;;21.40;52.14;97970.55;108300;1257;60469;-67
2023/11/06 00:46:59;;;;;;;18.40;9.20;;;;;;;21.69;51.64;97977.02;108183;1251;60377;-68
2023/11/06 00:49:26;;;;;;;19.10;9.40;;;;;;;21.75;51.36;97967.11;108269;1251;72573;-67
2023/11/06 00:51:54;;;;;;;22.00;10.80;;;;;;;21.71;51.33;97967.70;108317;1251;70840;-67
2023/11/06 00:54:21;;;;;;;19.70;9.50;;;;;;;21.53;51.74;97965.75;108158;1254;72661;-66
2023/11/06 00:56:49;;;;;;;25.10;12.10;;;;;;;21.50;52.04;97966.16;108221;1251;60590;-67
2023/11/06 00:59:17;;;;;;;34.20;13.70;;;;;;;21.83;51.18;97973.67;108253;1256;60479;-66
2023/11/06 01:01:44;;;;;;;31.60;13.60;;;;;;;21.89;50.93;97972.66;108174;1251;72536;-67
2023/11/06 01:04:12;;;;;;;33.60;13.90;;;;;;;21.96;50.67;97969.73;108117;1251;72289;-67
2023/11/06 01:06:39;;;;;;;27.00;11.20;;;;;;;21.95;50.76;97968.66;108143;1251;71693;-68
2023/11/06 01:09:07;;;;;;;19.60;8.40;;;;;;;21.66;51.28;97975.08;108072;1251;61720;-67
2023/11/06 01:14:36;;;;;;;21.80;10.20;;;;;;;18.08;61.60;97984.14;104915;1292;600733;-65
2023/11/06 01:17:03;;;;;;;20.20;10.50;;;;;;;18.83;59.36;97985.73;108016;1254;60401;-68
2023/11/06 01:19:30;;;;;;;25.10;11.00;;;;;;;18.82;59.35;97982.95;107836;1262;62386;-66
2023/11/06 01:21:58;;;;;;;31.60;10.60;;;;;;;18.60;60.34;97987.38;107833;1254;72003;-68
2023/11/06 01:24:25;;;;;;;19.10;7.80;;;;;;;18.67;60.34;97987.18;107928;1261;68941;-68
2023/11/06 01:26:53;;;;;;;16.10;8.00;;;;;;;18.73;60.18;97989.79;107718;1254;71440;-67
2023/11/06 01:29:20;;;;;;;12.00;7.80;;;;;;;18.78;60.05;97991.65;107964;1254;224175;-67
2023/11/06 01:31:48;;;;;;;13.50;7.10;;;;;;;18.89;59.52;97991.73;108007;1253;59742;-67
2023/11/06 01:34:15;;;;;;;11.80;7.80;;;;;;;18.79;60.04;97996.08;108063;1255;72731;-68
2023/11/06 01:36:43;;;;;;;19.90;10.50;;;;;;;18.99;59.33;97997.59;108070;1254;69206;-68
2023/11/06 01:39:11;;;;;;;18.80;9.50;;;;;;;18.94;59.48;98006.48;108098;1255;71826;-67
2023/11/06 01:41:38;;;;;;;20.40;9.50;;;;;;;19.05;59.26;98010.41;108051;1254;62230;-67
2023/11/06 01:44:07;;;;;;;15.60;8.40;;;;;;;19.10;59.10;98011.16;108044;1254;60529;-67
2023/11/06 01:46:34;;;;;;;14.20;7.70;;;;;;;19.10;59.19;98018.45;108168;1254;73079;-68
2023/11/06 01:49:02;;;;;;;16.80;8.30;;;;;;;19.13;59.13;98018.30;108038;1254;70688;-68
2023/11/06 01:51:29;;;;;;;15.20;9.00;;;;;;;19.09;59.17;98023.19;108109;1254;71811;-68
2023/11/06 01:53:57;;;;;;;13.70;8.50;;;;;;;18.96;59.67;98025.29;107984;1255;61653;-68
2023/11/06 01:56:24;;;;;;;18.00;9.40;;;;;;;18.87;59.92;98027.42;108074;1254;60142;-66
2023/11/06 01:58:52;;;;;;;17.20;10.50;;;;;;;18.91;59.85;98023.33;107991;1258;72963;-67
2023/11/06 02:01:20;;;;;;;21.00;9.70;;;;;;;19.02;59.49;98030.31;107974;1254;69291;-67
2023/11/06 02:03:48;;;;;;;16.70;9.60;;;;;;;19.11;59.19;98028.66;107904;1255;72731;-67
2023/11/06 02:06:15;;;;;;;17.30;9.70;;;;;;;19.10;59.28;98028.40;107907;1260;61599;-67
2023/11/06 02:08:44;;;;;;;17.40;9.80;;;;;;;19.04;59.25;98035.59;107924;1254;59611;-68
2023/11/06 02:11:12;;;;;;;15.10;10.90;;;;;;;19.17;58.90;98039.30;107729;1254;72111;-68
2023/11/06 02:13:39;;;;;;;14.80;9.30;;;;;;;19.16;58.85;98035.81;107706;1255;68587;-68
2023/11/06 02:16:08;;;;;;;18.40;9.80;;;;;;;19.26;58.23;98037.55;107900;1260;72916;-67
2023/11/06 02:18:36;;;;;;;16.80;8.80;;;;;;;19.07;58.63;98041.50;107986;1254;61707;-68
2023/11/06 02:21:05;;;;;;;14.60;9.20;;;;;;;19.06;58.54;98038.09;107849;1254;60017;-67
2023/11/06 02:23:32;;;;;;;17.80;9.10;;;;;;;19.17;57.97;98040.85;107881;1254;73114;-68
2023/11/06 02:26:00;;;;;;;14.00;8.80;;;;;;;18.96;58.42;98037.17;107855;1254;70106;-67
2023/11/06 02:28:29;;;;;;;13.90;9.00;;;;;;;19.02;58.14;98040.60;107825;1255;72463;-66
2023/11/06 02:30:56;;;;;;;15.60;9.50;;;;;;;19.13;57.65;98050.52;107896;1254;60474;-66
2023/11/06 02:33:24;;;;;;;13.60;8.50;;;;;;;19.08;57.44;98047.99;107850;1254;58971;-67
2023/11/06 02:35:52;;;;;;;18.80;8.50;;;;;;;18.94;57.78;98055.13;107892;1254;72293;-68
2023/11/06 02:38:19;;;;;;;16.60;8.50;;;;;;;18.80;58.22;98067.98;107602;1254;70476;-67
2023/11/06 02:40:47;;;;;;;17.80;10.10;;;;;;;18.87;57.87;98063.19;107890;1254;72737;-67
2023/11/06 02:43:14;;;;;;;17.40;9.70;;;;;;;18.89;57.61;98060.66;107846;1254;60594;-67
2023/11/06 02:45:44;;;;;;;19.10;11.20;;;;;;;18.82;57.84;98070.83;107736;1254;60014;-67
2023/11/06 02:48:12;;;;;;;23.70;11.60;;;;;;;18.86;57.53;98077.15;107921;1254;73165;-67
2023/11/06 02:50:40;;;;;;;19.10;10.60;;;;;;;18.89;57.33;98081.67;107994;1254;68633;-67
2023/11/06 02:53:07;;;;;;;21.20;10.50;;;;;;;18.82;57.39;98084.86;107886;1259;72663;-66
2023/11/06 02:55:35;;;;;;;18.80;9.30;;;;;;;18.75;57.41;98084.87;107900;1260;61727;-67
2023/11/06 02:58:03;;;;;;;15.10;8.20;;;;;;;18.42;58.35;98083.27;107952;1254;59959;-67
2023/11/06 03:00:31;;;;;;;16.20;8.10;;;;;;;18.67;57.51;98084.42;107784;1254;73084;-67
2023/11/06 03:02:59;;;;;;;14.40;7.10;;;;;;;18.75;57.14;98081.65;107907;1254;70150;-68
2023/11/06 03:05:27;;;;;;;12.00;7.20;;;;;;;18.65;57.10;98079.05;107892;1257;72728;-67
2023/11/06 03:07:54;;;;;;;14.40;6.90;;;;;;;18.61;57.06;98087.52;107595;1254;61708;-65
2023/11/06 03:10:22;;;;;;;10.10;6.40;;;;;;;18.45;57.29;98093.38;107876;1254;59637;-67
2023/11/06 03:12:50;;;;;;;11.70;6.00;;;;;;;18.54;56.85;98095.30;107848;1254;71907;-68
2023/11/06 03:15:17;;;;;;;11.50;7.30;;;;;;;18.53;56.72;98105.92;107701;1254;68766;-67
2023/11/06 03:17:45;;;;;;;10.30;6.50;;;;;;;18.52;56.72;98111.18;107766;1254;71507;-67
2023/11/06 03:20:12;;;;;;;15.80;6.60;;;;;;;18.55;56.54;98117.98;107904;1254;61681;-67
2023/11/06 03:22:40;;;;;;;10.40;6.10;;;;;;;18.47;56.70;98122.17;107832;1254;62425;-68
2023/11/06 03:25:09;;;;;;;10.80;7.00;;;;;;;18.52;56.51;98126.50;107806;1254;72904;-67
2023/11/06 03:27:37;;;;;;;8.70;5.90;;;;;;;18.56;56.33;98129.91;107887;1254;70511;-67
2023/11/06 03:30:08;;;;;;;9.00;6.20;;;;;;;18.52;56.39;98135.17;107822;1254;72653;-67
2023/11/06 03:32:35;;;;;;;7.90;6.30;;;;;;;18.53;56.37;98140.58;107872;1256;62491;-67
2023/11/06 03:35:03;;;;;;;12.10;6.70;;;;;;;18.48;56.37;98143.45;107915;1258;58985;-68
2023/11/06 03:37:31;;;;;;;8.40;5.80;;;;;;;18.32;56.82;98144.02;107941;1254;70998;-68
2023/11/06 03:39:58;;;;;;;13.80;6.60;;;;;;;18.25;56.91;98153.21;107941;1254;70236;-66
2023/11/06 03:42:26;;;;;;;9.90;6.20;;;;;;;18.15;57.17;98154.70;107894;1254;72826;-68
2023/11/06 03:44:53;;;;;;;10.10;6.20;;;;;;;18.04;57.37;98159.02;107837;1254;61681;-67
2023/11/06 03:47:21;;;;;;;9.60;6.00;;;;;;;17.99;57.42;98155.39;107842;1254;60019;-66
2023/11/06 03:49:48;;;;;;;11.10;6.50;;;;;;;17.99;57.51;98152.89;108046;1253;73144;-67
2023/11/06 03:52:16;;;;;;;9.10;6.20;;;;;;;18.14;56.99;98150.70;107961;1260;69969;-67
2023/11/06 03:54:44;;;;;;;11.50;6.00;;;;;;;18.01;57.20;98155.91;108017;1254;72645;-67
2023/11/06 03:57:11;;;;;;;11.10;5.60;;;;;;;17.96;57.20;98154.29;108058;1254;60612;-67
2023/11/06 03:59:40;;;;;;;11.40;6.00;;;;;;;18.05;56.90;98160.80;108091;1253;60167;-66
2023/11/06 04:02:09;;;;;;;10.00;5.90;;;;;;;18.12;56.57;98164.09;108212;1260;73034;-68
2023/11/06 04:04:37;;;;;;;12.70;6.00;;;;;;;18.20;56.19;98167.33;108079;1254;69087;-67
2023/11/06 04:07:04;;;;;;;9.20;5.90;;;;;;;18.17;56.06;98172.26;108017;1257;72768;-67
2023/11/06 04:09:32;;;;;;;10.70;5.50;;;;;;;18.09;56.26;98173.95;108110;1254;61916;-67
2023/11/06 04:12:02;;;;;;;9.80;6.50;;;;;;;18.17;55.88;98180.59;108062;1253;60056;-66
2023/11/06 04:14:31;;;;;;;9.30;6.10;;;;;;;18.22;55.71;98189.34;108128;1254;72845;-67
2023/11/06 04:16:58;;;;;;;11.90;6.30;;;;;;;18.09;56.00;98189.23;108042;1254;67785;-66
2023/11/06 04:19:26;;;;;;;12.00;6.00;;;;;;;17.91;56.36;98192.92;108102;1254;72686;-67
2023/11/06 04:21:53;;;;;;;12.60;5.60;;;;;;;17.77;56.61;98196.44;108026;1259;60365;-66
2023/11/06 04:24:21;;;;;;;9.90;6.00;;;;;;;17.76;56.66;98200.18;108060;1253;60118;-67
2023/11/06 04:26:49;;;;;;;7.70;5.50;;;;;;;17.76;56.62;98209.58;108067;1253;73081;-68
2023/11/06 04:29:16;;;;;;;10.10;5.70;;;;;;;17.82;56.41;98215.67;108050;1254;68846;-67
2023/11/06 04:31:44;;;;;;;9.00;5.60;;;;;;;17.81;56.40;98215.41;108198;1254;72637;-67
2023/11/06 04:34:11;;;;;;;9.60;5.70;;;;;;;17.93;55.98;98223.80;108094;1254;61014;-68
2023/11/06 04:36:39;;;;;;;10.60;5.60;;;;;;;17.92;55.88;98227.33;108056;1256;59527;-68
2023/11/06 04:39:09;;;;;;;9.60;5.90;;;;;;;17.97;55.70;98233.88;108059;1254;71930;-68
2023/11/06 04:41:38;;;;;;;9.20;5.50;;;;;;;17.92;55.82;98241.19;108102;1253;69335;-68
2023/11/06 04:44:05;;;;;;;10.00;5.90;;;;;;;17.74;56.32;98243.90;108125;1253;71355;-67
2023/11/06 04:46:34;;;;;;;9.20;5.60;;;;;;;17.76;56.16;98250.61;108008;1254;61820;-67
2023/11/06 04:49:02;;;;;;;8.40;5.40;;;;;;;17.64;56.35;98256.02;108125;1253;60003;-67
2023/11/06 04:51:30;;;;;;;9.30;6.10;;;;;;;17.74;56.02;98261.50;108061;1254;73147;-68
2023/11/06 04:53:57;;;;;;;10.90;5.80;;;;;;;17.70;56.02;98263.41;108100;1254;69957;-68
2023/11/06 04:56:24;;;;;;;11.00;6.10;;;;;;;17.85;55.63;98264.34;108052;1254;72783;-67
2023/11/06 04:58:52;;;;;;;9.30;5.10;;;;;;;17.88;55.35;98270.27;108085;1253;60943;-66
2023/11/06 05:01:19;;;;;;;14.00;7.10;;;;;;;17.62;56.16;98275.92;108181;1251;59107;-67
2023/11/06 05:03:47;;;;;;;13.30;6.60;;;;;;;17.68;56.03;98277.68;108250;1256;71764;-68
2023/11/06 05:06:15;;;;;;;7.90;5.80;;;;;;;17.65;55.94;98285.75;108095;1251;69230;-68
2023/11/06 05:08:42;;;;;;;8.80;5.60;;;;;;;17.61;56.03;98296.42;108107;1251;72432;-67
2023/11/06 05:11:10;;;;;;;9.50;6.30;;;;;;;17.62;55.99;98311.39;108128;1251;60995;-66
2023/11/06 05:13:37;;;;;;;8.20;6.00;;;;;;;17.51;56.14;98316.36;108192;1251;59475;-67
2023/11/06 05:16:05;;;;;;;8.90;5.50;;;;;;;17.57;56.04;98319.00;108081;1251;73030;-67
2023/11/06 05:18:33;;;;;;;6.60;5.10;;;;;;;17.53;56.18;98319.73;108141;1251;69001;-67
2023/11/06 05:21:00;;;;;;;11.00;5.70;;;;;;;17.55;56.12;98323.99;108186;1251;72786;-67
2023/11/06 05:23:28;;;;;;;9.30;5.80;;;;;;;17.64;55.85;98327.36;108083;1253;59641;-67
2023/11/06 05:25:55;;;;;;;8.90;5.90;;;;;;;17.54;55.97;98328.89;108065;1251;60375;-67
2023/11/06 05:28:23;;;;;;;11.00;5.80;;;;;;;17.53;56.03;98332.81;108093;1251;73883;-68
2023/11/06 05:30:50;;;;;;;9.10;5.80;;;;;;;17.54;55.97;98327.28;108154;1251;69330;-68
2023/11/06 05:33:17;;;;;;;6.70;4.70;;;;;;;17.92;55.12;98337.59;108032;1253;72490;-68
2023/11/06 05:35:45;;;;;;;10.90;5.40;;;;;;;18.00;54.73;98340.19;108157;1254;61384;-67
2023/11/06 05:38:12;;;;;;;7.70;5.30;;;;;;;18.11;54.35;98351.29;108131;1251;60148;-68
2023/11/06 05:40:40;;;;;;;7.70;5.30;;;;;;;18.03;54.43;98351.78;108169;1251;73825;-68
2023/11/06 05:43:09;;;;;;;16.20;6.30;;;;;;;18.20;54.09;98355.92;108177;1251;70459;-68
2023/11/06 05:45:36;;;;;;;8.10;4.50;;;;;;;18.19;53.90;98360.50;108179;1253;71749;-67
2023/11/06 05:48:04;;;;;;;6.20;4.50;;;;;;;18.28;53.68;98369.23;108093;1251;61676;-68
2023/11/06 05:50:31;;;;;;;7.00;4.80;;;;;;;18.26;53.64;98368.55;108151;1253;60267;-67
2023/11/06 05:52:59;;;;;;;7.50;4.60;;;;;;;18.50;53.03;98370.11;108185;1257;73843;-68
2023/11/06 05:55:26;;;;;;;8.10;4.90;;;;;;;18.36;53.11;98371.52;108162;1251;69149;-68
2023/11/06 05:57:54;;;;;;;8.30;4.60;;;;;;;18.34;53.08;98374.89;108099;1251;71463;-66
2023/11/06 06:00:21;;;;;;;8.80;4.70;;;;;;;18.39;52.98;98373.82;108171;1253;61765;-68
2023/11/06 06:02:49;;;;;;;8.60;4.70;;;;;;;18.49;52.96;98369.50;108263;1257;60368;-68
2023/11/06 06:05:16;;;;;;;11.20;4.60;;;;;;;18.92;52.86;98373.09;108140;1253;73884;-67
2023/11/06 06:07:44;;;;;;;7.00;3.70;;;;;;;19.54;52.26;98378.23;108062;1253;70486;-68
2023/11/06 06:10:12;;;;;;;6.50;4.10;;;;;;;20.25;50.49;98389.83;108090;1254;71485;-68
2023/11/06 06:12:42;;;;;;;6.10;3.90;;;;;;;21.06;48.18;98385.34;107984;1253;61715;-68
2023/11/06 06:15:09;;;;;;;6.10;3.30;;;;;;;21.75;46.64;98382.45;108032;1253;60235;-68
2023/11/06 06:17:38;;;;;;;5.50;3.30;;;;;;;22.42;45.00;98386.35;108089;1258;73901;-67
2023/11/06 06:20:10;;;;;;;7.00;3.30;;;;;;;23.05;44.09;98397.91;108032;1253;70939;-67
2023/11/06 06:22:39;;;;;;;6.10;3.10;;;;;;;23.75;42.45;98399.23;108141;1254;73231;-68
2023/11/06 06:25:07;;;;;;;4.90;3.10;;;;;;;24.10;41.13;98404.27;108053;1254;60611;-68
2023/11/06 06:27:37;;;;;;;6.20;2.70;;;;;;;24.68;40.21;98408.77;108126;1253;60434;-68
2023/11/06 06:30:07;;;;;;;5.60;2.70;;;;;;;24.87;38.98;98409.18;108100;1254;72648;-68
2023/11/06 06:32:35;;;;;;;3.80;2.60;;;;;;;25.12;38.45;98410.50;108234;1253;70512;-69
2023/11/06 06:35:05;;;;;;;6.30;2.70;;;;;;;25.34;37.60;98416.83;107891;1253;71591;-68
2023/11/06 06:37:33;;;;;;;4.20;2.50;;;;;;;25.48;36.71;98417.40;107996;1254;60524;-69
2023/11/06 06:40:01;;;;;;;8.50;2.70;;;;;;;26.00;36.43;98423.70;107949;1252;60415;-68
2023/11/06 06:42:28;;;;;;;6.00;2.80;;;;;;;26.41;35.78;98423.83;108112;1253;75272;-68
2023/11/06 06:44:55;;;;;;;6.30;2.60;;;;;;;26.66;35.01;98428.29;108092;1253;70074;-68
2023/11/06 06:47:23;;;;;;;4.30;2.50;;;;;;;26.55;34.72;98433.75;108126;1253;71421;-69
2023/11/06 06:49:51;;;;;;;4.10;2.10;;;;;;;26.71;34.09;98442.02;108130;1253;60683;-68
2023/11/06 06:52:18;;;;;;;4.70;2.20;;;;;;;26.81;33.66;98444.45;108070;1253;60186;-67
2023/11/06 06:54:46;;;;;;;7.50;2.40;;;;;;;26.81;33.38;98451.33;108102;1253;72583;-69
2023/11/06 06:57:14;;;;;;;4.50;2.30;;;;;;;26.97;32.95;98441.48;108119;1253;70423;-69
2023/11/06 06:59:41;;;;;;;7.40;2.60;;;;;;;26.91;32.57;98439.60;108132;1251;71396;-68
2023/11/06 07:02:09;;;;;;;4.60;2.30;;;;;;;26.97;32.32;98439.02;108145;1254;60502;-68
2023/11/06 07:04:40;;;;;;;4.50;2.50;;;;;;;27.21;32.14;98441.09;108244;1251;60415;-68
2023/11/06 07:07:08;;;;;;;8.60;3.00;;;;;;;27.24;32.00;98434.58;108085;1257;73859;-68
2023/11/06 07:09:35;;;;;;;6.10;2.60;;;;;;;27.19;31.69;98433.60;108154;1251;72113;-68
2023/11/06 07:12:03;;;;;;;4.40;2.60;;;;;;;27.52;31.55;98433.71;108167;1251;74591;-68
2023/11/06 07:14:31;;;;;;;4.80;2.40;;;;;;;27.59;31.06;98439.73;108108;1253;60339;-68
2023/11/06 07:17:04;;;;;;;20.00;3.30;;;;;;;27.84;31.08;98438.73;108159;1251;60404;-69
2023/11/06 07:19:32;;;;;;;5.40;2.50;;;;;;;28.28;30.34;98440.98;108178;1251;72641;-68
2023/11/06 07:22:01;;;;;;;4.20;2.20;;;;;;;28.72;30.23;98439.77;108181;1251;70328;-68
2023/11/06 07:24:29;;;;;;;3.70;2.10;;;;;;;28.95;29.19;98445.17;108173;1253;72704;-69
2023/11/06 07:26:58;;;;;;;4.00;2.00;;;;;;;28.96;28.83;98445.80;108094;1253;60455;-70
2023/11/06 07:29:26;;;;;;;4.20;2.10;;;;;;;28.68;28.76;98448.84;108118;1255;60301;-69
2023/11/06 07:31:53;;;;;;;3.90;1.80;;;;;;;28.91;29.17;98453.20;108084;1251;73872;-68
2023/11/06 07:34:21;;;;;;;5.00;2.30;;;;;;;29.33;28.64;98454.02;108099;1251;71238;-68
2023/11/06 07:36:50;;;;;;;3.00;2.00;;;;;;;29.55;27.88;98457.59;108141;1253;71845;-69
2023/11/06 07:39:21;;;;;;;2.80;1.90;;;;;;;29.54;27.61;98463.73;108086;1251;60412;-68
2023/11/06 07:41:48;;;;;;;3.30;1.70;;;;;;;29.52;27.59;98469.21;108135;1251;60220;-69
2023/11/06 07:44:19;;;;;;;;;;;;;;;29.76;27.62;98467.71;108108;1251;74121;-69
2023/11/06 07:46:48;;;;;;;4.30;1.50;;;;;;;30.05;27.15;98472.06;108106;1257;70201;-69
2023/11/06 07:49:16;;;;;;;4.20;1.50;;;;;;;29.82;26.92;98475.23;108065;1251;72763;-69
2023/11/06 07:51:43;;;;;;;3.00;1.60;;;;;;;30.09;26.86;98473.48;108097;1251;60453;-69
2023/11/06 07:54:11;;;;;;;2.10;1.50;;;;;;;29.97;26.65;98473.44;108095;1257;60312;-68
2023/11/06 07:56:38;;;;;;;2.30;1.50;;;;;;;30.42;26.74;98475.82;108095;1251;73770;-69
2023/11/06 07:59:06;;;;;;;3.90;1.50;;;;;;;30.73;26.15;98483.38;108109;1251;70464;-68
2023/11/06 08:01:35;;;;;;;4.20;1.40;;;;;;;30.86;25.69;98488.84;108143;1253;72778;-68
2023/11/06 08:04:02;;;;;;;2.40;1.40;;;;;;;31.12;25.40;98492.15;108080;1253;60488;-69
2023/11/06 08:06:30;;;;;;;2.80;1.60;;;;;;;31.06;25.22;98493.36;108092;1253;60302;-69
2023/11/06 08:08:57;;;;;;;2.60;1.60;;;;;;;30.96;25.28;98498.86;108091;1253;73810;-69
2023/11/06 08:11:25;;;;;;;5.10;1.90;;;;;;;31.20;25.11;98500.48;108065;1256;70333;-69
2023/11/06 08:13:53;;;;;;;3.70;1.40;;;;;;;31.00;25.11;98503.36;108052;1254;73119;-69
2023/11/06 08:16:21;;;;;;;2.70;1.40;;;;;;;30.93;25.33;98505.14;108061;1253;60408;-68
2023/11/06 08:18:48;;;;;;;2.50;1.50;;;;;;;30.89;25.33;98506.91;108099;1253;60435;-68
2023/11/06 08:21:15;;;;;;;1.90;1.40;;;;;;;31.01;25.15;98518.01;108080;1253;73996;-68
2023/11/06 08:23:44;;;;;;;4.20;1.40;;;;;;;30.97;24.77;98518.52;108026;1253;69132;-67
2023/11/06 08:26:11;;;;;;;15.40;3.00;;;;;;;30.58;25.49;98517.67;108019;1253;72679;-68
2023/11/06 08:28:42;;;;;;;10.10;2.10;;;;;;;30.67;25.32;98524.89;108014;1253;60231;-69
2023/11/06 08:31:09;;;;;;;3.40;1.60;;;;;;;30.89;25.46;98523.65;108059;1253;60253;-69
2023/11/06 08:33:37;;;;;;;2.50;1.40;;;;;;;31.17;25.12;98521.28;108018;1253;76356;-68
2023/11/06 08:36:06;;;;;;;3.10;1.40;;;;;;;30.85;24.94;98529.16;107974;1253;70736;-68
2023/11/06 08:38:33;;;;;;;1.80;1.30;;;;;;;30.15;25.64;98529.94;108014;1254;73283;-68
2023/11/06 08:41:02;;;;;;;1.30;1.20;;;;;;;29.65;26.45;98531.39;108045;1253;60363;-68
2023/11/06 08:43:31;;;;;;;2.90;1.50;;;;;;;29.59;26.36;98532.34;108003;1253;60278;-68
2023/11/06 08:46:00;;;;;;;3.90;1.50;;;;;;;29.68;26.39;98534.91;108099;1253;74415;-69
2023/11/06 08:48:28;;;;;;;4.20;1.50;;;;;;;29.89;26.22;98533.03;107972;1253;70227;-69
2023/11/06 08:50:56;;;;;;;2.70;1.40;;;;;;;30.06;25.97;98531.35;107914;1254;71419;-69
2023/11/06 08:53:24;;;;;;;5.30;1.40;;;;;;;30.03;26.04;98540.34;108050;1253;61959;-69
2023/11/06 08:55:51;;;;;;;1.60;1.20;;;;;;;30.51;25.69;98535.77;108109;1253;62674;-69
2023/11/06 08:58:19;;;;;;;2.60;1.60;;;;;;;30.66;25.16;98544.35;108046;1253;72277;-67
2023/11/06 09:00:50;;;;;;;4.20;1.60;;;;;;;30.66;25.21;98551.33;108104;1257;70140;-69
2023/11/06 09:03:17;;;;;;;7.70;1.90;;;;;;;31.02;25.02;98555.61;108097;1253;74658;-68
2023/11/06 09:05:45;;;;;;;19.90;2.40;;;;;;;31.47;24.67;98560.55;108030;1253;59751;-70
2023/11/06 09:08:13;;;;;;;3.40;1.50;;;;;;;31.78;24.26;98562.13;108060;1253;60425;-70
2023/11/06 09:10:40;;;;;;;1.90;1.40;;;;;;;31.71;24.06;98564.17;108033;1253;73960;-68
2023/11/06 09:13:08;;;;;;;3.10;1.30;;;;;;;31.64;24.09;98561.87;108010;1253;70226;-69
2023/11/06 09:15:38;;;;;;;2.80;1.60;;;;;;;31.46;24.39;98556.23;108035;1253;72154;-69
2023/11/06 09:18:06;;;;;;;;;;;;;;;31.36;24.44;98551.19;108005;1254;60371;-69
2023/11/06 09:20:34;;;;;;;3.90;1.30;;;;;;;31.25;24.50;98557.53;108024;1253;62322;-69
2023/11/06 09:23:01;;;;;;;2.90;1.10;;;;;;;31.27;24.42;98563.48;108025;1253;73021;-69
2023/11/06 09:25:29;;;;;;;2.50;1.20;;;;;;;31.10;24.42;98559.00;108030;1258;69251;-69
2023/11/06 09:27:57;;;;;;;5.00;1.30;;;;;;;31.13;24.62;98558.27;108013;1253;75125;-68
2023/11/06 09:30:24;;;;;;;2.40;1.40;;;;;;;31.01;24.49;98562.55;108067;1253;60184;-70
2023/11/06 09:32:51;;;;;;;3.30;1.80;;;;;;;31.03;24.69;98562.06;108057;1253;60544;-69
2023/11/06 09:35:22;;;;;;;2.30;1.10;;;;;;;31.02;24.82;98563.44;108067;1253;76203;-69
2023/11/06 09:37:50;;;;;;;3.00;1.60;;;;;;;30.31;25.53;98568.05;108031;1253;71035;-69
2023/11/06 09:40:20;;;;;;;2.60;1.40;;;;;;;30.13;25.78;98566.63;108012;1253;71428;-69
2023/11/06 09:42:47;;;;;;;2.60;1.50;;;;;;;29.71;26.41;98569.26;108026;1253;62373;-68
2023/11/06 09:45:15;;;;;;;2.60;1.50;;;;;;;29.50;26.70;98567.27;108092;1253;61059;-68
2023/11/06 09:47:49;;;;;;;3.60;1.30;;;;;;;29.23;27.06;98574.55;108011;1253;72864;-68
2023/11/06 09:50:19;;;;;;;2.90;1.50;;;;;;;28.93;27.40;98582.88;108035;1253;71595;-69
2023/11/06 09:52:53;;;;;;;4.30;1.60;;;;;;;28.93;27.47;98582.58;108001;1253;72938;-69
2023/11/06 09:55:21;;;;;;;4.30;1.80;;;;;;;29.08;27.18;98581.05;108038;1253;60402;-69
2023/11/06 09:57:50;;;;;;;3.30;1.60;;;;;;;29.20;27.21;98583.80;108001;1256;62347;-69
2023/11/06 10:00:17;;;;;;;4.20;1.40;;;;;;;29.27;27.04;98587.04;108174;1256;73280;-68
2023/11/06 10:02:48;;;;;;;6.10;1.20;;;;;;;29.39;26.88;98584.89;108056;1253;72161;-69
2023/11/06 10:05:19;;;;;;;2.00;1.40;;;;;;;29.42;26.34;98583.59;108138;1257;72912;-69
2023/11/06 10:07:52;;;;;;;2.80;1.30;;;;;;;29.51;26.41;98580.12;108107;1253;62310;-68
2023/11/06 10:10:22;;;;;;;1.80;1.20;;;;;;;29.44;26.34;98590.17;108075;1253;59162;-68
2023/11/06 10:13:06;;;;;;;1.60;1.10;;;;;;;29.22;26.60;98597.83;108094;1251;73745;-69
2023/11/06 10:15:34;;;;;;;1.70;1.20;;;;;;;29.07;26.90;98606.48;108078;1255;70082;-69
2023/11/06 10:18:15;;;;;;;1.80;1.20;;;;;;;28.91;26.91;98609.10;108045;1251;73260;-68
2023/11/06 10:20:44;;;;;;;1.20;1.10;;;;;;;28.67;27.14;98614.20;108109;1251;60419;-69
2023/11/06 10:23:26;;;;;;;4.20;1.50;;;;;;;28.14;27.87;98620.30;108060;1251;60279;-69
2023/11/06 10:25:55;;;;;;;2.10;1.20;;;;;;;27.52;28.74;98624.39;108052;1251;73911;-69
2023/11/06 10:28:23;;;;;;;3.00;1.10;;;;;;;26.95;29.44;98636.45;108061;1251;70480;-68
2023/11/06 10:30:53;;;;;;;3.40;1.30;;;;;;;26.04;30.55;98642.92;108036;1253;70598;-69
2023/11/06 10:33:21;;;;;;;1.40;1.20;;;;;;;25.75;31.09;98640.64;108178;1251;60444;-68
2023/11/06 10:35:50;;;;;;;3.00;1.40;;;;;;;25.33;31.97;98645.97;108103;1251;62243;-69
2023/11/06 10:38:33;;;;;;;4.90;1.50;;;;;;;24.92;32.52;98651.11;108117;1251;73097;-68
2023/11/06 10:41:24;;;;;;;2.00;1.10;;;;;;;24.67;32.98;98654.77;108100;1257;69410;-68
2023/11/06 10:43:59;;;;;;;3.50;1.50;;;;;;;24.57;33.35;98658.99;108053;1251;74957;-68
2023/11/06 10:46:30;;;;;;;1.80;1.20;;;;;;;24.23;33.86;98656.88;108090;1251;60456;-68
2023/11/06 10:49:07;;;;;;;3.20;1.80;;;;;;;24.25;34.01;98655.59;108104;1251;60540;-68
2023/11/06 10:51:34;;;;;;;5.70;1.60;;;;;;;24.55;33.82;98664.98;108110;1256;76061;-67
2023/11/06 10:54:02;;;;;;;1.80;1.30;;;;;;;24.80;33.40;98661.10;108053;1251;71250;-68
2023/11/06 10:56:32;;;;;;;1.90;1.30;;;;;;;25.06;33.04;98662.69;108044;1251;73114;-68
2023/11/06 10:59:00;;;;;;;;;;;;;;;25.22;32.90;98667.03;108096;1251;60259;-67
2023/11/06 11:01:28;;;;;;;1.80;1.30;;;;;;;25.27;32.80;98669.49;108077;1251;60519;-68
2023/11/06 11:03:56;;;;;;;2.60;1.40;;;;;;;25.50;32.37;98671.55;108046;1251;76649;-68
2023/11/06 11:06:24;;;;;;;7.40;2.00;;;;;;;25.53;32.23;98671.91;108092;1251;69217;-68
2023/11/06 11:08:52;;;;;;;5.50;1.60;;;;;;;25.73;32.25;98670.08;108105;1251;74580;-68
2023/11/06 11:11:20;;;;;;;4.50;1.50;;;;;;;25.89;31.98;98673.46;108028;1251;61025;-68
2023/11/06 11:13:47;;;;;;;3.00;1.60;;;;;;;25.84;31.83;98668.64;107999;1251;62005;-68
2023/11/06 11:16:34;;;;;;;2.90;1.50;;;;;;;25.67;31.97;98674.85;108099;1251;73093;-68
2023/11/06 11:19:27;;;;;;;3.40;1.40;;;;;;;25.96;31.83;98689.57;108129;1251;71509;-67
2023/11/06 11:22:09;;;;;;;6.40;1.30;;;;;;;25.79;31.45;98694.89;108107;1251;72939;-68
2023/11/06 11:24:45;;;;;;;3.10;1.50;;;;;;;25.79;31.35;98695.99;108115;1257;62143;-69
2023/11/06 11:27:18;;;;;;;2.10;1.20;;;;;;;25.53;31.69;98700.65;108102;1251;60434;-68
2023/11/06 11:29:54;;;;;;;1.30;1.00;;;;;;;25.43;31.59;98706.70;108055;1251;74095;-68